createdAt,value
2018-06-05T00:01:03.382Z,10.50
2018-06-05T00:02:06.844Z,14.00
2018-06-05T00:03:10.307Z,12.37
2018-06-05T00:04:13.738Z,11.67
2018-06-05T00:05:20.093Z,10.30
2018-06-05T00:06:23.484Z,10.17
2018-06-05T00:07:26.908Z,12.90
2018-06-05T00:08:30.316Z,13.50
2018-06-05T00:09:33.702Z,12.00
2018-06-05T00:10:37.097Z,12.43
2018-06-05T00:11:40.504Z,10.27
2018-06-05T00:12:43.928Z,8.57
2018-06-05T00:13:47.320Z,13.23
2018-06-05T00:14:50.741Z,20.47
2018-06-05T00:15:54.145Z,12.60
2018-06-05T00:16:57.525Z,9.70
2018-06-05T00:18:00.979Z,7.50
2018-06-05T00:19:04.414Z,7.47
2018-06-05T00:20:07.825Z,12.90
2018-06-05T00:21:11.208Z,11.33
2018-06-05T00:22:14.626Z,9.70
2018-06-05T00:23:18.038Z,10.40
2018-06-05T00:24:21.430Z,7.97
2018-06-05T00:25:24.852Z,8.93
2018-06-05T00:26:28.256Z,7.40
2018-06-05T00:27:31.652Z,10.93
2018-06-05T00:28:35.119Z,10.53
2018-06-05T00:29:38.524Z,11.20
2018-06-05T00:30:41.921Z,8.27
2018-06-05T00:31:45.324Z,9.30
2018-06-05T00:32:48.724Z,9.27
2018-06-05T00:33:52.125Z,10.80
2018-06-05T00:34:55.542Z,10.87
2018-06-05T00:35:58.947Z,8.40
2018-06-05T00:37:02.343Z,13.17
2018-06-05T00:38:05.750Z,8.70
2018-06-05T00:39:09.164Z,12.70
2018-06-05T00:40:12.548Z,9.63
2018-06-05T00:41:15.970Z,11.57
2018-06-05T00:42:19.362Z,21.60
2018-06-05T00:43:22.764Z,13.13
2018-06-05T00:44:26.199Z,10.87
2018-06-05T00:45:29.588Z,12.53
2018-06-05T00:46:32.996Z,15.27
2018-06-05T00:47:36.447Z,13.30
2018-06-05T00:48:39.855Z,14.97
2018-06-05T00:49:43.270Z,12.93
2018-06-05T00:50:46.669Z,11.83
2018-06-05T00:52:01.267Z,10.10
2018-06-05T00:53:04.679Z,10.83
2018-06-05T00:54:08.059Z,12.40
2018-06-05T00:55:11.496Z,9.73
2018-06-05T00:56:14.886Z,11.23
2018-06-05T00:57:18.287Z,9.80
2018-06-05T00:58:21.699Z,14.30
2018-06-05T00:59:25.096Z,14.60
2018-06-05T01:00:28.525Z,10.77
2018-06-05T01:01:32.752Z,12.47
2018-06-05T01:02:36.138Z,10.70
2018-06-05T01:03:39.520Z,9.57
2018-06-05T01:04:42.905Z,9.00
2018-06-05T01:05:46.348Z,10.50
2018-06-05T01:06:49.740Z,11.80
2018-06-05T01:07:53.124Z,10.93
2018-06-05T01:08:56.520Z,10.77
2018-06-05T01:09:59.943Z,10.63
2018-06-05T01:11:03.403Z,10.37
2018-06-05T01:12:07.102Z,10.37
2018-06-05T01:13:10.512Z,12.20
2018-06-05T01:14:13.890Z,9.63
2018-06-05T01:15:17.280Z,9.83
2018-06-05T01:16:20.681Z,13.53
2018-06-05T01:17:24.116Z,10.00
2018-06-05T01:18:27.523Z,9.00
2018-06-05T01:19:30.938Z,10.73
2018-06-05T01:20:34.357Z,13.97
2018-06-05T01:21:37.776Z,9.23
2018-06-05T01:22:41.169Z,14.73
2018-06-05T01:23:44.583Z,9.70
2018-06-05T01:24:48.088Z,11.27
2018-06-05T01:25:51.491Z,21.67
2018-06-05T01:26:54.991Z,9.30
2018-06-05T01:27:58.399Z,13.17
2018-06-05T01:29:01.778Z,11.50
2018-06-05T01:30:05.204Z,12.30
2018-06-05T01:31:08.654Z,11.53
2018-06-05T01:32:12.046Z,9.13
2018-06-05T01:33:15.428Z,9.70
2018-06-05T01:34:18.809Z,8.70
2018-06-05T01:35:22.185Z,9.30
2018-06-05T01:36:25.586Z,11.00
2018-06-05T01:37:29.035Z,14.40
2018-06-05T01:38:32.440Z,11.50
2018-06-05T01:39:35.852Z,11.83
2018-06-05T01:40:39.252Z,10.27
2018-06-05T01:41:42.650Z,11.93
2018-06-05T01:42:46.050Z,10.17
2018-06-05T01:43:49.432Z,9.60
2018-06-05T01:44:52.821Z,9.30
2018-06-05T01:45:56.213Z,11.20
2018-06-05T01:46:59.604Z,10.07
2018-06-05T01:48:03.029Z,10.07
2018-06-05T01:49:06.456Z,9.47
2018-06-05T01:50:09.853Z,11.83
2018-06-05T01:51:13.236Z,8.90
2018-06-05T01:52:16.644Z,11.57
2018-06-05T01:53:20.042Z,12.83
2018-06-05T01:54:23.457Z,11.47
2018-06-05T01:55:26.840Z,9.80
2018-06-05T01:56:30.240Z,9.40
2018-06-05T01:57:33.628Z,10.00
2018-06-05T01:58:37.045Z,10.50
2018-06-05T01:59:40.466Z,10.43
2018-06-05T02:00:43.874Z,10.80
2018-06-05T02:01:47.291Z,10.63
2018-06-05T02:02:50.688Z,9.60
2018-06-05T02:03:54.106Z,8.57
2018-06-05T02:04:56.514Z,9.27
2018-06-05T02:05:59.912Z,8.33
2018-06-05T02:07:03.323Z,9.27
2018-06-05T02:08:06.776Z,9.20
2018-06-05T02:09:10.585Z,9.30
2018-06-05T02:10:13.980Z,9.83
2018-06-05T02:11:17.984Z,9.07
2018-06-05T02:12:21.385Z,10.80
2018-06-05T02:13:24.768Z,13.13
2018-06-05T02:14:28.202Z,10.40
2018-06-05T02:15:31.582Z,10.27
2018-06-05T02:16:34.995Z,8.80
2018-06-05T02:17:38.409Z,14.03
2018-06-05T02:18:41.830Z,10.33
2018-06-05T02:19:45.230Z,9.70
2018-06-05T02:20:48.636Z,10.33
2018-06-05T02:21:52.050Z,9.43
2018-06-05T02:22:55.437Z,9.60
2018-06-05T02:23:58.843Z,10.70
2018-06-05T02:25:02.252Z,8.93
2018-06-05T02:26:05.685Z,9.60
2018-06-05T02:27:09.100Z,10.10
2018-06-05T02:28:12.493Z,8.90
2018-06-05T02:29:15.876Z,9.37
2018-06-05T02:30:19.309Z,12.73
2018-06-05T02:31:22.686Z,11.10
2018-06-05T02:32:26.085Z,9.73
2018-06-05T02:33:29.477Z,13.43
2018-06-05T02:34:32.886Z,10.10
2018-06-05T02:35:36.319Z,8.63
2018-06-05T02:36:39.700Z,9.00
2018-06-05T02:37:43.122Z,9.60
2018-06-05T02:38:46.520Z,9.43
2018-06-05T02:39:49.902Z,9.70
2018-06-05T02:40:54.236Z,11.10
2018-06-05T02:41:57.663Z,9.43
2018-06-05T02:43:01.047Z,10.10
2018-06-05T02:44:04.500Z,9.80
2018-06-05T02:45:07.917Z,11.30
2018-06-05T02:46:11.364Z,17.53
2018-06-05T02:47:14.763Z,10.10
2018-06-05T02:48:18.162Z,10.77
2018-06-05T02:49:21.550Z,12.43
2018-06-05T02:50:24.948Z,8.97
2018-06-05T02:51:28.379Z,10.50
2018-06-05T02:52:31.778Z,9.67
2018-06-05T02:53:35.173Z,9.53
2018-06-05T02:54:38.597Z,12.80
2018-06-05T02:55:42.008Z,9.77
2018-06-05T02:56:45.440Z,10.80
2018-06-05T02:57:48.821Z,10.77
2018-06-05T02:58:52.227Z,11.77
2018-06-05T02:59:55.621Z,9.00
2018-06-05T03:00:59.023Z,12.80
2018-06-05T03:02:02.460Z,8.63
2018-06-05T03:03:07.343Z,9.47
2018-06-05T03:04:10.792Z,9.97
2018-06-05T03:05:14.162Z,10.57
2018-06-05T03:06:17.546Z,9.30
2018-06-05T03:07:20.957Z,8.90
2018-06-05T03:08:24.371Z,9.80
2018-06-05T03:09:27.761Z,9.53
2018-06-05T03:10:31.173Z,12.83
2018-06-05T03:11:34.575Z,12.53
2018-06-05T03:12:38.062Z,9.20
2018-06-05T03:13:41.430Z,19.90
2018-06-05T03:14:44.849Z,9.27
2018-06-05T03:15:48.268Z,9.10
2018-06-05T03:16:51.683Z,9.60
2018-06-05T03:17:55.102Z,11.87
2018-06-05T03:18:58.494Z,9.00
2018-06-05T03:20:01.880Z,10.10
2018-06-05T03:21:05.290Z,9.87
2018-06-05T03:22:08.671Z,9.43
2018-06-05T03:23:12.093Z,9.47
2018-06-05T03:24:15.491Z,11.03
2018-06-05T03:25:18.887Z,10.47
2018-06-05T03:26:22.288Z,14.77
2018-06-05T03:27:25.687Z,10.20
2018-06-05T03:28:29.112Z,13.70
2018-06-05T03:29:32.512Z,12.53
2018-06-05T03:30:35.930Z,12.67
2018-06-05T03:31:39.348Z,11.10
2018-06-05T03:32:42.776Z,12.07
2018-06-05T03:33:46.218Z,9.80
2018-06-05T03:34:49.609Z,10.23
2018-06-05T03:35:52.986Z,10.00
2018-06-05T03:36:56.372Z,16.23
2018-06-05T03:37:59.779Z,11.03
2018-06-05T03:39:03.293Z,10.07
2018-06-05T03:40:06.740Z,13.73
2018-06-05T03:41:10.157Z,9.50
2018-06-05T03:42:13.548Z,9.80
2018-06-05T03:43:16.979Z,9.27
2018-06-05T03:44:20.416Z,13.00
2018-06-05T03:45:23.790Z,9.77
2018-06-05T03:46:27.200Z,10.43
2018-06-05T03:47:30.590Z,9.30
2018-06-05T03:48:33.982Z,10.53
2018-06-05T03:49:41.858Z,10.30
2018-06-05T03:50:45.271Z,10.30
2018-06-05T03:51:48.676Z,10.07
2018-06-05T03:52:52.077Z,9.53
2018-06-05T03:53:55.462Z,11.00
2018-06-05T03:54:58.873Z,11.33
2018-06-05T03:56:02.277Z,14.67
2018-06-05T03:57:05.959Z,10.33
2018-06-05T03:58:09.328Z,12.87
2018-06-05T03:59:12.708Z,10.83
2018-06-05T04:00:16.132Z,9.23
2018-06-05T04:01:19.604Z,13.27
2018-06-05T04:02:22.981Z,13.67
2018-06-05T04:03:26.354Z,9.70
2018-06-05T04:04:29.772Z,12.63
2018-06-05T04:05:33.204Z,13.33
2018-06-05T04:06:36.613Z,10.27
2018-06-05T04:07:40.008Z,11.93
2018-06-05T04:08:43.420Z,11.57
2018-06-05T04:09:46.844Z,12.03
2018-06-05T04:10:50.233Z,11.20
2018-06-05T04:11:53.652Z,9.53
2018-06-05T04:12:57.053Z,16.63
2018-06-05T04:14:00.461Z,11.27
2018-06-05T04:15:03.919Z,11.27
2018-06-05T04:16:07.375Z,10.33
2018-06-05T04:17:10.773Z,11.20
2018-06-05T04:18:14.190Z,14.73
2018-06-05T04:19:17.623Z,10.50
2018-06-05T04:20:21.006Z,9.80
2018-06-05T04:21:24.452Z,14.47
2018-06-05T04:22:27.848Z,12.60
2018-06-05T04:23:31.279Z,9.73
2018-06-05T04:24:34.679Z,9.93
2018-06-05T04:25:38.062Z,11.67
2018-06-05T04:26:42.023Z,9.97
2018-06-05T04:27:45.420Z,12.93
2018-06-05T04:28:48.816Z,10.43
2018-06-05T04:29:52.204Z,14.23
2018-06-05T04:30:55.573Z,11.93
2018-06-05T04:31:58.974Z,9.40
2018-06-05T04:33:02.381Z,19.23
2018-06-05T04:34:05.768Z,12.93
2018-06-05T04:35:09.154Z,12.00
2018-06-05T04:36:12.598Z,10.40
2018-06-05T04:37:16.043Z,11.47
2018-06-05T04:38:19.460Z,10.80
2018-06-05T04:39:22.868Z,10.87
2018-06-05T04:40:26.260Z,9.47
2018-06-05T04:41:29.675Z,20.80
2018-06-05T04:42:33.102Z,16.53
2018-06-05T04:43:36.506Z,10.80
2018-06-05T04:44:39.910Z,14.00
2018-06-05T04:45:43.301Z,15.97
2018-06-05T04:46:46.728Z,15.73
2018-06-05T04:47:50.189Z,15.00
2018-06-05T04:48:53.570Z,11.30
2018-06-05T04:49:56.976Z,11.63
2018-06-05T04:51:00.385Z,9.60
2018-06-05T04:52:03.827Z,12.87
2018-06-05T04:53:07.250Z,14.43
2018-06-05T04:54:10.656Z,10.10
2018-06-05T04:55:14.076Z,9.50
2018-06-05T04:56:17.515Z,10.50
2018-06-05T04:57:20.927Z,10.07
2018-06-05T04:58:24.384Z,9.03
2018-06-05T04:59:27.761Z,16.00
2018-06-05T05:00:31.196Z,11.13
2018-06-05T05:01:34.637Z,12.47
2018-06-05T05:02:38.053Z,9.40
2018-06-05T05:03:41.494Z,11.93
2018-06-05T05:04:44.894Z,13.20
2018-06-05T05:05:48.284Z,9.50
2018-06-05T05:06:51.697Z,13.70
2018-06-05T05:07:55.158Z,12.20
2018-06-05T05:08:58.590Z,13.30
2018-06-05T05:10:01.963Z,14.23
2018-06-05T05:11:05.637Z,14.93
2018-06-05T05:12:09.022Z,10.30
2018-06-05T05:13:12.431Z,13.40
2018-06-05T05:14:15.865Z,12.43
2018-06-05T05:15:19.296Z,11.07
2018-06-05T05:16:22.831Z,10.80
2018-06-05T05:17:26.255Z,12.73
2018-06-05T05:18:29.670Z,10.10
2018-06-05T05:19:33.131Z,9.70
2018-06-05T05:20:36.524Z,10.57
2018-06-05T05:21:39.960Z,15.43
2018-06-05T05:22:43.389Z,13.80
2018-06-05T05:23:46.784Z,10.07
2018-06-05T05:24:50.206Z,9.30
2018-06-05T05:25:53.601Z,11.60
2018-06-05T05:26:56.978Z,15.30
2018-06-05T05:28:00.365Z,17.00
2018-06-05T05:29:03.829Z,10.13
2018-06-05T05:30:07.331Z,10.33
2018-06-05T05:31:10.742Z,12.40
2018-06-05T05:32:14.136Z,13.53
2018-06-05T05:33:17.517Z,13.13
2018-06-05T05:34:20.913Z,11.20
2018-06-05T05:35:24.351Z,12.93
2018-06-05T05:36:27.726Z,14.97
2018-06-05T05:37:31.137Z,26.30
2018-06-05T05:38:34.569Z,66.13
2018-06-05T05:39:38.011Z,24.93
2018-06-05T05:40:41.441Z,37.00
2018-06-05T05:41:44.848Z,42.60
2018-06-05T05:42:48.287Z,44.70
2018-06-05T05:43:51.692Z,32.60
2018-06-05T05:44:55.185Z,30.40
2018-06-05T05:45:58.618Z,33.03
2018-06-05T05:47:02.051Z,30.70
2018-06-05T05:48:05.502Z,29.80
2018-06-05T05:49:08.886Z,28.07
2018-06-05T05:50:12.261Z,28.40
2018-06-05T05:51:15.702Z,33.57
2018-06-05T05:52:19.092Z,33.00
2018-06-05T05:53:22.476Z,31.93
2018-06-05T05:54:25.872Z,34.10
2018-06-05T05:55:29.293Z,34.20
2018-06-05T05:56:32.713Z,28.40
2018-06-05T05:57:36.114Z,31.90
2018-06-05T05:58:39.516Z,28.37
2018-06-05T05:59:42.908Z,29.67
2018-06-05T06:00:46.325Z,29.67
2018-06-05T06:01:49.769Z,26.67
2018-06-05T06:02:53.164Z,30.30
2018-06-05T06:03:56.553Z,24.93
2018-06-05T06:04:59.956Z,27.00
2018-06-05T06:06:03.388Z,28.80
2018-06-05T06:07:06.818Z,26.63
2018-06-05T06:08:10.212Z,36.33
2018-06-05T06:09:13.609Z,26.87
2018-06-05T06:10:16.998Z,30.30
2018-06-05T06:11:20.411Z,29.43
2018-06-05T06:12:23.832Z,28.47
2018-06-05T06:13:27.256Z,23.27
2018-06-05T06:14:30.648Z,22.97
2018-06-05T06:15:34.149Z,24.00
2018-06-05T06:16:37.561Z,32.13
2018-06-05T06:17:40.958Z,25.30
2018-06-05T06:18:44.371Z,25.23
2018-06-05T06:19:47.779Z,25.67
2018-06-05T06:20:51.184Z,24.93
2018-06-05T06:21:54.562Z,23.37
2018-06-05T06:22:57.985Z,23.57
2018-06-05T06:24:01.422Z,23.20
2018-06-05T06:25:05.050Z,23.30
2018-06-05T06:26:08.441Z,24.00
2018-06-05T06:27:11.828Z,24.13
2018-06-05T06:28:15.245Z,27.77
2018-06-05T06:29:18.726Z,25.60
2018-06-05T06:30:22.129Z,25.60
2018-06-05T06:31:25.526Z,26.50
2018-06-05T06:32:28.911Z,26.10
2018-06-05T06:33:32.333Z,25.50
2018-06-05T06:34:35.749Z,21.97
2018-06-05T06:35:39.178Z,26.10
2018-06-05T06:36:42.576Z,30.80
2018-06-05T06:37:45.978Z,32.60
2018-06-05T06:38:49.396Z,34.23
2018-06-05T06:39:52.819Z,35.13
2018-06-05T06:40:56.208Z,35.50
2018-06-05T06:41:59.612Z,38.00
2018-06-05T06:43:03.011Z,36.60
2018-06-05T06:44:06.543Z,38.20
2018-06-05T06:45:09.943Z,36.63
2018-06-05T06:46:13.359Z,35.13
2018-06-05T06:47:16.765Z,38.70
2018-06-05T06:48:20.153Z,36.40
2018-06-05T06:49:23.572Z,32.57
2018-06-05T06:50:27.171Z,35.53
2018-06-05T06:51:30.568Z,33.63
2018-06-05T06:52:33.968Z,42.70
2018-06-05T06:53:37.353Z,35.67
2018-06-05T06:54:40.802Z,46.53
2018-06-05T06:55:44.223Z,34.10
2018-06-05T06:56:47.636Z,29.83
2018-06-05T06:57:51.020Z,37.80
2018-06-05T06:58:54.458Z,58.43
2018-06-05T06:59:57.901Z,37.53
2018-06-05T07:01:01.274Z,40.43
2018-06-05T07:02:04.725Z,40.63
2018-06-05T07:03:08.117Z,39.57
2018-06-05T07:04:11.519Z,35.47
2018-06-05T07:05:14.948Z,33.77
2018-06-05T07:06:18.336Z,33.20
2018-06-05T07:07:21.710Z,36.10
2018-06-05T07:08:25.104Z,29.63
2018-06-05T07:09:28.482Z,31.30
2018-06-05T07:10:31.900Z,36.23
2018-06-05T07:11:35.563Z,35.60
2018-06-05T07:12:38.957Z,35.83
2018-06-05T07:13:42.349Z,31.60
2018-06-05T07:14:45.787Z,31.00
2018-06-05T07:15:49.227Z,31.00
2018-06-05T07:16:52.639Z,36.07
2018-06-05T07:17:56.063Z,29.87
2018-06-05T07:18:59.449Z,28.70
2018-06-05T07:20:02.841Z,37.23
2018-06-05T07:21:06.287Z,28.23
2018-06-05T07:22:09.701Z,28.53
2018-06-05T07:23:13.108Z,29.87
2018-06-05T07:24:16.508Z,26.50
2018-06-05T07:25:19.902Z,24.20
2018-06-05T07:26:23.312Z,25.93
2018-06-05T07:27:26.700Z,29.80
2018-06-05T07:28:30.076Z,22.70
2018-06-05T07:29:33.479Z,23.43
2018-06-05T07:30:36.891Z,26.90
2018-06-05T07:31:40.339Z,27.00
2018-06-05T07:32:43.748Z,22.83
2018-06-05T07:33:47.134Z,28.07
2018-06-05T07:34:50.531Z,21.07
2018-06-05T07:35:53.968Z,26.63
2018-06-05T07:36:57.428Z,22.10
2018-06-05T07:38:00.840Z,28.00
2018-06-05T07:39:06.177Z,22.43
2018-06-05T07:40:09.870Z,21.00
2018-06-05T07:41:13.256Z,24.13
2018-06-05T07:42:16.671Z,24.00
2018-06-05T07:43:20.046Z,21.17
2018-06-05T07:44:23.456Z,20.17
2018-06-05T07:45:26.855Z,20.73
2018-06-05T07:46:30.264Z,23.40
2018-06-05T07:47:33.695Z,23.70
2018-06-05T07:48:37.089Z,20.27
2018-06-05T07:49:40.498Z,24.40
2018-06-05T07:50:43.890Z,21.23
2018-06-05T07:51:47.341Z,27.40
2018-06-05T07:52:51.389Z,19.87
2018-06-05T07:53:54.803Z,17.20
2018-06-05T07:54:58.197Z,21.37
2018-06-05T07:56:01.570Z,20.93
2018-06-05T07:57:05.031Z,23.63
2018-06-05T07:58:08.441Z,21.97
2018-06-05T07:59:11.832Z,21.00
2018-06-05T08:00:15.230Z,22.47
2018-06-05T08:01:18.610Z,22.30
2018-06-05T08:02:21.996Z,22.37
2018-06-05T08:03:25.412Z,20.43
2018-06-05T08:04:28.805Z,20.07
2018-06-05T08:05:32.197Z,19.30
2018-06-05T08:06:35.566Z,22.20
2018-06-05T08:07:38.953Z,19.43
2018-06-05T08:08:42.361Z,23.60
2018-06-05T08:09:45.771Z,22.47
2018-06-05T08:10:49.187Z,19.70
2018-06-05T08:11:52.581Z,23.43
2018-06-05T08:12:55.989Z,21.93
2018-06-05T08:13:59.397Z,28.40
2018-06-05T08:15:02.807Z,27.67
2018-06-05T08:16:06.441Z,23.60
2018-06-05T08:17:09.855Z,25.50
2018-06-05T08:18:13.257Z,27.80
2018-06-05T08:19:16.672Z,30.60
2018-06-05T08:20:20.092Z,33.63
2018-06-05T08:21:23.602Z,31.33
2018-06-05T08:23:03.257Z,32.40
2018-06-05T08:24:07.829Z,30.77
2018-06-05T08:25:11.301Z,36.00
2018-06-05T08:26:14.689Z,30.17
2018-06-05T08:27:18.147Z,31.80
2018-06-05T08:28:21.552Z,32.20
2018-06-05T08:29:25.072Z,33.90
2018-06-05T08:30:28.458Z,37.20
2018-06-05T08:31:31.853Z,42.90
2018-06-05T08:32:35.251Z,40.40
2018-06-05T08:33:38.647Z,38.57
2018-06-05T08:34:42.057Z,35.30
2018-06-05T08:35:45.467Z,53.67
2018-06-05T08:36:48.859Z,40.53
2018-06-05T08:37:52.240Z,39.50
2018-06-05T08:38:55.668Z,40.97
2018-06-05T08:39:59.106Z,34.70
2018-06-05T08:41:02.519Z,33.50
2018-06-05T08:42:06.031Z,33.47
2018-06-05T08:43:09.412Z,48.13
2018-06-05T08:44:12.797Z,70.13
2018-06-05T08:45:16.266Z,50.13
2018-06-05T08:46:19.638Z,48.60
2018-06-05T08:47:23.002Z,35.60
2018-06-05T08:48:26.365Z,36.80
2018-06-05T08:49:29.779Z,33.60
2018-06-05T08:50:33.212Z,32.33
2018-06-05T08:51:36.605Z,37.80
2018-06-05T08:52:40.000Z,36.10
2018-06-05T08:53:43.392Z,41.07
2018-06-05T08:54:46.785Z,32.67
2018-06-05T08:55:50.173Z,36.40
2018-06-05T08:56:53.552Z,36.17
2018-06-05T08:57:56.969Z,34.47
2018-06-05T08:59:00.378Z,37.67
2018-06-05T09:00:03.847Z,34.33
2018-06-05T09:01:07.261Z,35.17
2018-06-05T09:02:10.638Z,36.93
2018-06-05T09:03:14.041Z,30.73
2018-06-05T09:04:17.441Z,34.23
2018-06-05T09:05:20.836Z,38.87
2018-06-05T09:06:24.287Z,34.83
2018-06-05T09:07:27.688Z,28.73
2018-06-05T09:08:31.098Z,40.30
2018-06-05T09:09:34.516Z,28.33
2018-06-05T09:10:37.952Z,32.40
2018-06-05T09:11:41.351Z,28.77
2018-06-05T09:12:44.775Z,33.57
2018-06-05T09:13:48.190Z,27.23
2018-06-05T09:14:51.585Z,27.90
2018-06-05T09:15:55.025Z,31.97
2018-06-05T09:16:58.466Z,26.00
2018-06-05T09:18:01.893Z,27.20
2018-06-05T09:19:05.301Z,27.80
2018-06-05T09:20:08.734Z,24.67
2018-06-05T09:21:12.175Z,27.00
2018-06-05T09:22:15.592Z,24.70
2018-06-05T09:23:19.004Z,30.80
2018-06-05T09:24:22.437Z,25.63
2018-06-05T09:25:26.181Z,27.80
2018-06-05T09:26:29.893Z,27.03
2018-06-05T09:27:34.658Z,24.73
2018-06-05T09:28:38.171Z,23.50
2018-06-05T09:29:41.851Z,33.03
2018-06-05T09:30:45.468Z,24.60
2018-06-05T09:31:48.860Z,24.90
2018-06-05T09:32:52.301Z,26.13
2018-06-05T09:33:55.700Z,23.43
2018-06-05T09:34:59.105Z,21.37
2018-06-05T09:36:02.512Z,23.77
2018-06-05T09:37:05.920Z,21.70
2018-06-05T09:38:09.341Z,21.93
2018-06-05T09:39:12.742Z,26.37
2018-06-05T09:40:16.153Z,25.47
2018-06-05T09:41:19.649Z,27.67
2018-06-05T09:42:23.198Z,25.93
2018-06-05T09:43:26.609Z,25.10
2018-06-05T09:44:30.004Z,27.10
2018-06-05T09:45:33.405Z,28.03
2018-06-05T09:46:36.830Z,29.50
2018-06-05T09:47:40.236Z,22.53
2018-06-05T09:48:43.676Z,27.27
2018-06-05T09:49:47.074Z,28.33
2018-06-05T09:50:50.485Z,23.80
2018-06-05T09:51:53.914Z,30.33
2018-06-05T09:52:57.294Z,32.20
2018-06-05T09:54:00.710Z,30.87
2018-06-05T09:55:04.243Z,32.70
2018-06-05T09:56:07.644Z,31.23
2018-06-05T09:57:11.047Z,29.80
2018-06-05T09:58:14.514Z,28.70
2018-06-05T09:59:17.888Z,27.97
2018-06-05T10:00:26.579Z,28.30
2018-06-05T10:01:30.015Z,27.90
2018-06-05T10:02:33.632Z,27.73
2018-06-05T10:03:37.056Z,35.63
2018-06-05T10:04:40.457Z,28.07
2018-06-05T10:05:43.874Z,35.40
2018-06-05T10:06:47.358Z,24.53
2018-06-05T10:07:50.832Z,29.13
2018-06-05T10:08:54.261Z,32.80
2018-06-05T10:09:57.660Z,26.13
2018-06-05T10:11:01.061Z,28.93
2018-06-05T10:12:04.491Z,28.53
2018-06-05T10:13:07.952Z,29.53
2018-06-05T10:14:11.497Z,27.70
2018-06-05T10:15:14.850Z,30.13
2018-06-05T10:16:18.248Z,28.40
2018-06-05T10:17:21.675Z,24.50
2018-06-05T10:18:25.091Z,23.83
2018-06-05T10:19:28.497Z,22.17
2018-06-05T10:20:31.928Z,33.80
2018-06-05T10:21:35.332Z,28.60
2018-06-05T10:22:38.741Z,38.33
2018-06-05T10:23:42.153Z,28.47
2018-06-05T10:24:45.627Z,23.77
2018-06-05T10:25:49.059Z,27.80
2018-06-05T10:26:52.462Z,43.60
2018-06-05T10:27:55.902Z,23.40
2018-06-05T10:28:59.302Z,29.50
2018-06-05T10:30:02.744Z,23.57
2018-06-05T10:31:06.167Z,21.97
2018-06-05T10:32:09.617Z,25.50
2018-06-05T10:33:13.184Z,23.30
2018-06-05T10:34:16.604Z,22.63
2018-06-05T10:35:20.014Z,22.87
2018-06-05T10:36:23.414Z,24.13
2018-06-05T10:37:26.817Z,25.10
2018-06-05T10:38:30.241Z,24.20
2018-06-05T10:39:33.677Z,23.17
2018-06-05T10:40:37.163Z,25.10
2018-06-05T10:41:40.576Z,24.60
2018-06-05T10:42:44.001Z,23.00
2018-06-05T10:43:47.413Z,23.47
2018-06-05T10:44:50.858Z,23.80
2018-06-05T10:45:54.266Z,28.30
2018-06-05T10:46:57.795Z,21.03
2018-06-05T10:48:01.190Z,25.80
2018-06-05T10:49:04.611Z,25.37
2018-06-05T10:50:08.029Z,20.27
2018-06-05T10:51:11.443Z,34.87
2018-06-05T10:52:14.845Z,26.53
2018-06-05T10:53:18.248Z,28.37
2018-06-05T10:54:21.640Z,33.40
2018-06-05T10:55:25.063Z,28.07
2018-06-05T10:56:28.492Z,27.70
2018-06-05T10:57:31.928Z,26.00
2018-06-05T10:58:35.325Z,25.90
2018-06-05T10:59:38.709Z,31.07
2018-06-05T11:00:42.102Z,28.10
2018-06-05T11:01:45.517Z,32.60
2018-06-05T11:02:48.944Z,23.77
2018-06-05T11:03:52.366Z,23.27
2018-06-05T11:04:55.775Z,25.40
2018-06-05T11:05:59.196Z,25.87
2018-06-05T11:07:02.575Z,28.10
2018-06-05T11:08:06.020Z,26.80
2018-06-05T11:09:09.425Z,31.83
2018-06-05T11:10:12.854Z,29.30
2018-06-05T11:11:16.404Z,26.20
2018-06-05T11:12:19.809Z,25.90
2018-06-05T11:13:23.241Z,30.90
2018-06-05T11:14:26.663Z,27.50
2018-06-05T11:15:30.063Z,26.20
2018-06-05T11:16:33.487Z,28.83
2018-06-05T11:17:36.877Z,35.77
2018-06-05T11:18:40.299Z,28.67
2018-06-05T11:19:43.713Z,30.70
2018-06-05T11:20:47.112Z,29.27
2018-06-05T11:21:50.506Z,28.33
2018-06-05T11:22:53.904Z,31.97
2018-06-05T11:23:57.288Z,28.60
2018-06-05T11:25:00.676Z,28.50
2018-06-05T11:26:04.125Z,35.70
2018-06-05T11:27:07.541Z,31.50
2018-06-05T11:28:10.943Z,29.17
2018-06-05T11:29:14.322Z,28.47
2018-06-05T11:30:17.694Z,29.57
2018-06-05T11:31:21.099Z,27.37
2018-06-05T11:32:24.506Z,28.03
2018-06-05T11:33:27.921Z,26.37
2018-06-05T11:34:31.326Z,31.73
2018-06-05T11:35:34.715Z,25.17
2018-06-05T11:36:38.105Z,32.70
2018-06-05T11:37:41.537Z,29.50
2018-06-05T11:38:44.941Z,28.20
2018-06-05T11:39:48.403Z,30.70
2018-06-05T11:40:51.808Z,27.47
2018-06-05T11:41:55.280Z,28.07
2018-06-05T11:42:58.686Z,32.33
2018-06-05T11:44:02.111Z,27.83
2018-06-05T11:45:06.077Z,27.87
2018-06-05T11:46:09.485Z,26.30
2018-06-05T11:47:12.878Z,30.40
2018-06-05T11:48:16.254Z,26.73
2018-06-05T11:49:19.736Z,23.97
2018-06-05T11:50:23.191Z,28.20
2018-06-05T11:51:26.637Z,28.40
2018-06-05T11:52:30.042Z,26.37
2018-06-05T11:53:33.439Z,27.37
2018-06-05T11:54:36.886Z,26.80
2018-06-05T11:55:40.314Z,27.20
2018-06-05T11:56:43.729Z,29.77
2018-06-05T11:57:47.152Z,33.27
2018-06-05T11:58:50.610Z,29.87
2018-06-05T11:59:53.994Z,26.10
2018-06-05T12:00:57.401Z,29.57
2018-06-05T12:02:00.809Z,28.70
2018-06-05T12:03:04.305Z,26.40
2018-06-05T12:04:07.778Z,25.00
2018-06-05T12:05:11.183Z,26.77
2018-06-05T12:06:14.595Z,28.30
2018-06-05T12:07:17.977Z,30.33
2018-06-05T12:08:21.388Z,25.27
2018-06-05T12:09:24.807Z,29.93
2018-06-05T12:10:28.231Z,22.83
2018-06-05T12:11:31.625Z,26.93
2018-06-05T12:12:35.027Z,25.63
2018-06-05T12:13:38.458Z,26.20
2018-06-05T12:14:41.864Z,26.13
2018-06-05T12:15:45.256Z,28.10
2018-06-05T12:16:48.650Z,23.00
2018-06-05T12:17:52.129Z,27.80
2018-06-05T12:18:55.504Z,24.53
2018-06-05T12:19:58.928Z,24.67
2018-06-05T12:21:02.339Z,25.73
2018-06-05T12:22:05.758Z,27.73
2018-06-05T12:23:09.156Z,29.13
2018-06-05T12:24:12.626Z,24.83
2018-06-05T12:25:16.058Z,24.77
2018-06-05T12:26:19.473Z,23.73
2018-06-05T12:27:22.895Z,25.53
2018-06-05T12:28:26.296Z,22.23
2018-06-05T12:29:29.738Z,25.17
2018-06-05T12:30:33.139Z,25.70
2018-06-05T12:31:36.599Z,28.90
2018-06-05T12:32:40.001Z,25.50
2018-06-05T12:33:43.385Z,23.90
2018-06-05T12:34:46.792Z,28.27
2018-06-05T12:35:50.169Z,25.00
2018-06-05T12:36:53.601Z,26.17
2018-06-05T12:37:56.977Z,28.40
2018-06-05T12:39:00.377Z,25.77
2018-06-05T12:40:03.868Z,24.53
2018-06-05T12:41:07.254Z,22.33
2018-06-05T12:42:10.653Z,24.77
2018-06-05T12:43:14.087Z,31.13
2018-06-05T12:44:17.487Z,26.40
2018-06-05T12:45:20.985Z,25.43
2018-06-05T12:46:24.553Z,24.50
2018-06-05T12:47:27.957Z,25.20
2018-06-05T12:48:31.379Z,26.13
2018-06-05T12:49:34.754Z,24.57
2018-06-05T12:50:38.186Z,24.67
2018-06-05T12:51:41.601Z,26.93
2018-06-05T12:52:44.994Z,22.60
2018-06-05T12:53:48.409Z,26.37
2018-06-05T12:54:51.956Z,27.63
2018-06-05T12:55:55.426Z,26.40
2018-06-05T12:56:58.853Z,26.20
2018-06-05T12:58:02.298Z,26.77
2018-06-05T12:59:05.700Z,25.80
2018-06-05T13:00:09.110Z,27.10
2018-06-05T13:01:12.587Z,26.93
2018-06-05T13:02:16.007Z,26.10
2018-06-05T13:03:19.455Z,24.10
2018-06-05T13:04:22.833Z,22.90
2018-06-05T13:05:26.817Z,21.93
2018-06-05T13:06:30.250Z,23.27
2018-06-05T13:07:33.691Z,23.73
2018-06-05T13:08:37.086Z,27.77
2018-06-05T13:09:40.512Z,24.97
2018-06-05T13:10:43.890Z,22.93
2018-06-05T13:11:47.315Z,25.40
2018-06-05T13:12:50.694Z,25.60
2018-06-05T13:13:54.107Z,26.47
2018-06-05T13:14:57.496Z,24.63
2018-06-05T13:16:00.893Z,22.67
2018-06-05T13:17:04.362Z,22.73
2018-06-05T13:18:07.760Z,22.50
2018-06-05T13:19:11.164Z,24.20
2018-06-05T13:20:14.578Z,28.10
2018-06-05T13:21:17.980Z,26.53
2018-06-05T13:22:21.382Z,23.23
2018-06-05T13:23:24.797Z,23.37
2018-06-05T13:24:28.177Z,23.57
2018-06-05T13:25:31.570Z,27.90
2018-06-05T13:26:34.960Z,23.10
2018-06-05T13:27:38.400Z,24.90
2018-06-05T13:28:41.835Z,23.40
2018-06-05T13:29:45.231Z,22.67
2018-06-05T13:30:48.662Z,23.50
2018-06-05T13:31:52.057Z,25.00
2018-06-05T13:32:55.460Z,23.23
2018-06-05T13:33:58.858Z,23.83
2018-06-05T13:35:02.267Z,21.10
2018-06-05T13:36:06.007Z,25.10
2018-06-05T13:37:09.382Z,21.90
2018-06-05T13:38:12.856Z,23.60
2018-06-05T13:39:16.230Z,27.00
2018-06-05T13:40:19.645Z,24.17
2018-06-05T13:41:23.037Z,26.87